Brookline, Massachusetts
Current Conditions -  °F | °C
As of 2:27 PM on Monday 22 Dec 2014 (Local Time) from KBOS Reporting Station
Broken Clouds Broken Clouds  
Wind Chill: 37°   Ceiling: 3400
Heat Index: 43°   Visibility: 10mi
Dew Point: 39°   Wind: 9mph
Humidity: 87%   Direction: 40°NE
Pressure: 30.33"   Gusts: NA
Location:  42.33°N, 71.12°W
Report Text: KBOS 221927Z 04008KT 10SM FEW014 SCT025 BKN034 BKN200 06/04 A3033 RMK AO2 RAB1858E23 P0001
Loading
Personal Weather Stations






























Interactive Weather Map New forecast layout! Learn more

10-Day Weather Forecast

Advertisements
Track Severe Weather on mobile